createdAt,value
2023-03-30T00:02:18.700Z,5.57
2023-03-30T00:08:20.574Z,5.20
2023-03-30T00:14:29.655Z,5.35
2023-03-30T00:20:34.809Z,5.40
2023-03-30T00:26:36.671Z,5.30
2023-03-30T00:32:39.669Z,5.13
2023-03-30T00:38:41.551Z,4.95
2023-03-30T00:45:07.117Z,4.85
2023-03-30T00:51:10.547Z,4.75
2023-03-30T00:57:13.526Z,4.57
2023-03-30T01:03:21.354Z,4.68
2023-03-30T01:15:26.885Z,4.57
2023-03-30T01:21:45.685Z,3.88
2023-03-30T01:28:21.431Z,4.50
2023-03-30T01:34:51.742Z,4.70
2023-03-30T01:41:03.753Z,3.55
2023-03-30T01:47:16.418Z,4.03
2023-03-30T01:53:21.447Z,4.03
2023-03-30T01:59:27.257Z,3.80
2023-03-30T02:05:30.824Z,4.10
2023-03-30T02:11:33.964Z,3.72
2023-03-30T02:17:38.147Z,3.47
2023-03-30T02:23:46.460Z,3.58
2023-03-30T02:29:49.078Z,3.45
2023-03-30T02:36:27.932Z,3.72
2023-03-30T02:42:29.905Z,3.75
2023-03-30T02:49:05.624Z,3.92
2023-03-30T02:55:37.255Z,4.03
2023-03-30T03:02:28.453Z,3.88
2023-03-30T03:08:43.152Z,3.92
2023-03-30T03:14:48.630Z,4.22
2023-03-30T03:20:51.406Z,4.70
2023-03-30T03:26:55.617Z,3.47
2023-03-30T03:32:58.749Z,2.88
2023-03-30T03:39:02.720Z,3.47
2023-03-30T03:45:05.831Z,2.88
2023-03-30T03:51:11.662Z,3.90
2023-03-30T03:57:13.682Z,2.90
2023-03-30T04:03:15.885Z,3.20
2023-03-30T04:09:19.178Z,3.55
2023-03-30T04:15:44.155Z,2.60
2023-03-30T04:21:55.511Z,2.85
2023-03-30T04:28:11.722Z,2.47
2023-03-30T04:34:31.395Z,2.80
2023-03-30T04:40:41.796Z,3.10
2023-03-30T04:47:02.447Z,2.50
2023-03-30T04:53:40.651Z,3.03
2023-03-30T05:00:01.349Z,3.05
2023-03-30T05:06:15.098Z,2.45
2023-03-30T05:12:16.998Z,2.53
2023-03-30T05:18:27.244Z,2.58
2023-03-30T05:24:43.334Z,2.78
2023-03-30T05:30:55.070Z,2.80
2023-03-30T05:37:23.181Z,2.75
2023-03-30T05:43:36.632Z,2.92
2023-03-30T05:50:02.240Z,2.70
2023-03-30T05:56:14.614Z,2.95
2023-03-30T06:02:27.401Z,2.60
2023-03-30T06:08:35.478Z,2.97
2023-03-30T06:14:39.418Z,2.90
2023-03-30T06:21:04.100Z,2.50
2023-03-30T06:27:07.448Z,2.78
2023-03-30T06:33:09.592Z,3.25
2023-03-30T06:39:20.073Z,2.67
2023-03-30T06:45:22.085Z,2.78
2023-03-30T06:51:24.112Z,3.65
2023-03-30T06:57:26.822Z,3.40
2023-03-30T07:03:30.053Z,3.08
2023-03-30T07:09:54.911Z,3.20
2023-03-30T07:15:58.898Z,3.38
2023-03-30T07:22:01.269Z,3.33
2023-03-30T07:28:06.204Z,3.67
2023-03-30T07:34:09.366Z,3.13
2023-03-30T07:40:15.917Z,3.30
2023-03-30T07:46:17.973Z,3.60
2023-03-30T07:52:23.215Z,3.88
2023-03-30T07:58:31.494Z,3.28
2023-03-30T08:04:33.793Z,3.42
2023-03-30T08:10:36.526Z,3.05
2023-03-30T08:16:38.553Z,3.58
2023-03-30T08:22:40.406Z,3.40
2023-03-30T08:28:42.415Z,3.47
2023-03-30T08:34:44.867Z,3.63
2023-03-30T08:40:48.240Z,3.15
2023-03-30T08:46:50.610Z,3.13
2023-03-30T08:52:52.851Z,3.10
2023-03-30T08:59:12.757Z,3.35
2023-03-30T09:05:23.128Z,3.08
2023-03-30T09:11:37.936Z,2.95
2023-03-30T09:17:47.479Z,3.65
2023-03-30T09:23:49.584Z,3.45
2023-03-30T09:29:58.371Z,3.72
2023-03-30T09:36:10.787Z,3.58
2023-03-30T09:42:57.365Z,4.22
2023-03-30T09:49:14.256Z,3.70
2023-03-30T09:55:21.982Z,3.90
2023-03-30T10:01:37.590Z,3.30
2023-03-30T10:07:41.717Z,3.67
2023-03-30T10:13:48.730Z,3.75
2023-03-30T10:20:14.413Z,3.58
2023-03-30T10:26:20.703Z,3.67
2023-03-30T10:32:31.695Z,3.70
2023-03-30T10:38:34.545Z,3.78
2023-03-30T10:44:45.209Z,3.17
2023-03-30T10:50:55.574Z,3.53
2023-03-30T10:57:11.814Z,3.22
2023-03-30T11:03:22.012Z,3.13
2023-03-30T11:09:31.498Z,2.90
2023-03-30T11:15:36.078Z,2.33
2023-03-30T11:21:56.973Z,1.85
2023-03-30T11:28:23.016Z,1.95
2023-03-30T11:34:48.843Z,2.10
2023-03-30T11:40:56.543Z,2.03
2023-03-30T11:47:21.578Z,1.55
2023-03-30T11:54:20.043Z,1.52
2023-03-30T12:00:58.363Z,1.83
2023-03-30T12:07:09.457Z,1.60
2023-03-30T12:13:16.361Z,1.98
2023-03-30T12:19:56.450Z,2.10
2023-03-30T12:26:24.229Z,1.70
2023-03-30T12:32:29.247Z,2.00
2023-03-30T12:38:46.621Z,1.88
2023-03-30T12:45:06.800Z,2.03
2023-03-30T12:51:31.976Z,2.25
2023-03-30T12:58:02.487Z,1.98
2023-03-30T13:04:14.260Z,1.98
2023-03-30T13:10:31.778Z,1.73
2023-03-30T13:17:11.959Z,1.80
2023-03-30T13:23:14.167Z,1.80
2023-03-30T13:29:17.329Z,1.20
2023-03-30T13:35:49.078Z,1.60
2023-03-30T13:41:58.015Z,1.92
2023-03-30T13:48:08.991Z,1.65
2023-03-30T13:54:28.366Z,1.95
2023-03-30T14:00:33.296Z,1.65
2023-03-30T14:06:44.121Z,1.98
2023-03-30T14:12:48.873Z,1.95
2023-03-30T14:18:51.436Z,3.10
2023-03-30T14:25:27.063Z,2.63
2023-03-30T14:31:38.753Z,3.03
2023-03-30T14:37:45.251Z,2.47
2023-03-30T14:43:58.634Z,2.30
2023-03-30T14:50:04.630Z,2.85
2023-03-30T14:56:07.785Z,2.97
2023-03-30T15:02:27.237Z,2.83
2023-03-30T15:08:33.426Z,2.10
2023-03-30T15:14:38.338Z,1.35
2023-03-30T15:20:42.401Z,1.65
2023-03-30T15:26:49.651Z,1.40
2023-03-30T15:32:56.050Z,1.50
2023-03-30T15:38:59.081Z,2.05
2023-03-30T15:45:19.988Z,1.70
2023-03-30T15:51:25.207Z,1.90
2023-03-30T15:57:30.845Z,2.13
2023-03-30T16:03:39.338Z,1.90
2023-03-30T16:09:41.250Z,1.95
2023-03-30T16:15:46.375Z,2.17
2023-03-30T16:21:48.288Z,1.77
2023-03-30T16:27:50.297Z,1.50
2023-03-30T16:33:52.897Z,1.58
2023-03-30T16:39:54.723Z,1.20
2023-03-30T16:45:56.593Z,1.20
2023-03-30T16:51:58.480Z,1.30
2023-03-30T16:58:00.394Z,1.15
2023-03-30T17:04:03.294Z,1.17
2023-03-30T17:11:01.281Z,1.23
2023-03-30T17:17:07.277Z,1.30
2023-03-30T17:23:10.267Z,1.42
2023-03-30T17:29:12.190Z,1.42
2023-03-30T17:35:14.991Z,1.33
2023-03-30T17:41:19.436Z,1.30
2023-03-30T17:47:21.365Z,1.95
2023-03-30T17:53:23.441Z,1.77
2023-03-30T17:59:25.363Z,2.38
2023-03-30T18:05:30.973Z,1.88
2023-03-30T18:11:32.809Z,1.98
2023-03-30T18:17:34.679Z,2.42
2023-03-30T18:23:37.276Z,2.72
2023-03-30T18:29:39.143Z,1.88
2023-03-30T18:35:41.820Z,2.30
2023-03-30T18:41:43.576Z,1.67
2023-03-30T18:47:45.697Z,2.40
2023-03-30T18:53:47.574Z,2.78
2023-03-30T18:59:49.337Z,4.10
2023-03-30T19:05:51.740Z,2.55
2023-03-30T19:11:53.514Z,2.28
2023-03-30T19:17:55.484Z,3.35
2023-03-30T19:23:57.409Z,2.90
2023-03-30T19:29:59.268Z,2.58
2023-03-30T19:36:01.113Z,2.60
2023-03-30T19:42:03.070Z,2.08
2023-03-30T19:48:04.983Z,1.67
2023-03-30T19:54:07.392Z,2.63
2023-03-30T20:00:15.329Z,2.30
2023-03-30T20:06:17.307Z,3.00
2023-03-30T20:12:19.148Z,2.35
2023-03-30T20:18:20.985Z,2.65
2023-03-30T20:24:23.739Z,2.50
2023-03-30T20:30:25.573Z,2.40
2023-03-30T20:36:28.711Z,2.05
2023-03-30T20:42:30.936Z,2.05
2023-03-30T20:48:39.832Z,2.60
2023-03-30T20:54:42.352Z,2.80
2023-03-30T21:00:44.103Z,2.40
2023-03-30T21:06:46.217Z,2.72
2023-03-30T21:12:48.092Z,2.30
2023-03-30T21:18:50.934Z,2.20
2023-03-30T21:24:52.760Z,2.70
2023-03-30T21:30:56.061Z,2.63
2023-03-30T21:36:58.119Z,2.72
2023-03-30T21:42:59.950Z,2.67
2023-03-30T21:49:01.808Z,2.30
2023-03-30T21:55:04.262Z,1.73
2023-03-30T22:01:12.367Z,2.25
2023-03-30T22:07:14.983Z,1.58
2023-03-30T22:13:16.755Z,1.40
2023-03-30T22:19:20.952Z,1.38
2023-03-30T22:25:24.007Z,1.48
2023-03-30T22:31:26.686Z,1.55
2023-03-30T22:37:29.755Z,1.42
2023-03-30T22:43:32.727Z,1.42
2023-03-30T22:49:34.837Z,1.30
2023-03-30T22:55:36.654Z,1.50
2023-03-30T23:01:39.278Z,1.52
2023-03-30T23:07:44.102Z,1.38
2023-03-30T23:13:46.201Z,1.30
2023-03-30T23:19:48.010Z,1.50
2023-03-30T23:25:52.730Z,1.60
2023-03-30T23:31:54.645Z,1.65
2023-03-30T23:37:56.469Z,1.50
2023-03-30T23:43:58.245Z,1.33
2023-03-30T23:50:00.044Z,1.65
2023-03-30T23:56:06.169Z,2.03
